Time;durP1;ratioP1;P1;durP2;ratioP2;P2;SDS_P1;SDS_P2;PMS_P1;PMS_P2;Temp;Humidity;BMP_temperature;BMP_pressure;BME280_temperature;BME280_humidity;BME280_pressure;Samples;Min_cycle;Max_cycle;Signal;HPM_P1;HPM_P2
2023/08/22 00:00:41;;;;;;;6.43;2.13;;;;;;;14.39;100.00;101595.91;4995478;28;20484;-74
2023/08/22 00:03:06;;;;;;;6.03;2.13;;;;;;;14.32;100.00;101588.50;5037263;28;20084;-75
2023/08/22 00:05:32;;;;;;;6.97;2.70;;;;;;;14.37;100.00;101593.38;5026820;28;20365;-74
2023/08/22 00:07:59;;;;;;;5.97;2.88;;;;;;;14.41;100.00;101615.38;5038506;28;20040;-74
2023/08/22 00:10:25;;;;;;;4.88;2.10;;;;;;;14.46;100.00;101623.78;5015075;28;20531;-74
2023/08/22 00:12:50;;;;;;;5.03;2.23;;;;;;;14.46;100.00;101610.34;5021554;28;20506;-74
2023/08/22 00:15:16;;;;;;;4.00;2.27;;;;;;;14.43;100.00;101611.53;5009747;28;20434;-74
2023/08/22 00:17:42;;;;;;;4.57;2.70;;;;;;;14.47;100.00;101602.13;4994345;28;20037;-74
2023/08/22 00:20:08;;;;;;;9.88;3.33;;;;;;;14.45;100.00;101588.03;5041167;28;20128;-74
2023/08/22 00:22:37;;;;;;;3.35;2.20;;;;;;;14.45;100.00;101588.03;5010528;28;20391;-74
2023/08/22 00:25:04;;;;;;;5.80;2.50;;;;;;;14.46;100.00;101587.00;5027157;28;20515;-74
2023/08/22 00:27:30;;;;;;;5.82;1.80;;;;;;;14.45;100.00;101582.66;5018204;28;20040;-74
2023/08/22 00:29:57;;;;;;;6.18;2.63;;;;;;;14.45;100.00;101588.03;5013471;28;20065;-74
2023/08/22 00:32:25;;;;;;;12.55;2.80;;;;;;;14.43;100.00;101583.81;5022440;28;20037;-74
2023/08/22 00:34:52;;;;;;;3.97;2.08;;;;;;;14.48;100.00;101589.53;5031014;28;20040;-74
2023/08/22 00:37:18;;;;;;;14.45;2.97;;;;;;;14.45;100.00;101587.19;5013482;28;20061;-74
2023/08/22 00:39:44;;;;;;;5.60;2.60;;;;;;;14.54;100.00;101594.28;5045944;22;20059;-72
2023/08/22 00:42:09;;;;;;;5.57;2.88;;;;;;;14.51;100.00;101586.50;5021215;28;20034;-72
2023/08/22 00:44:35;;;;;;;4.57;2.90;;;;;;;14.56;100.00;101573.41;5010846;28;20029;-72
2023/08/22 00:47:00;;;;;;;6.03;2.97;;;;;;;14.58;100.00;101568.72;5005837;28;20120;-72
2023/08/22 00:49:26;;;;;;;4.03;2.23;;;;;;;14.59;100.00;101566.91;5005206;28;20118;-72
2023/08/22 00:51:52;;;;;;;7.40;2.95;;;;;;;14.58;100.00;101555.28;5010982;28;20038;-72
2023/08/22 00:54:19;;;;;;;6.55;2.28;;;;;;;14.61;100.00;101554.09;5019600;28;20037;-72
2023/08/22 00:56:45;;;;;;;11.80;3.47;;;;;;;14.76;100.00;101557.78;5027121;28;20380;-72
2023/08/22 00:59:11;;;;;;;8.98;2.58;;;;;;;15.00;100.00;101521.94;5000818;28;20397;-72
2023/08/22 01:01:37;;;;;;;8.82;2.55;;;;;;;15.18;100.00;101502.91;5013581;28;20488;-72
2023/08/22 01:04:02;;;;;;;6.97;2.63;;;;;;;15.26;100.00;101477.81;5018319;28;20026;-72
2023/08/22 01:06:50;;;;;;;;;;;;;;;15.35;100.00;101474.91;5027223;28;20791;-72
2023/08/22 01:09:28;;;;;;;7.35;2.42;;;;;;;15.43;100.00;101468.66;5018748;28;19925;-73
2023/08/22 01:12:05;;;;;;;7.18;2.85;;;;;;;15.50;100.00;101458.84;5009583;28;20048;-72
2023/08/22 01:14:36;;;;;;;8.57;2.53;;;;;;;15.57;100.00;101443.69;5022288;28;20132;-72
2023/08/22 01:17:03;;;;;;;6.38;1.98;;;;;;;15.60;100.00;101413.69;5007059;28;20445;-72
2023/08/22 01:19:29;;;;;;;6.60;2.25;;;;;;;15.69;100.00;101410.97;5005344;28;20116;-73
2023/08/22 01:21:56;;;;;;;10.77;2.60;;;;;;;15.75;100.00;101403.00;5009477;28;20041;-72
2023/08/22 01:24:22;;;;;;;5.50;2.20;;;;;;;15.82;100.00;101381.59;5019334;28;20022;-73
2023/08/22 01:26:47;;;;;;;3.22;1.85;;;;;;;15.87;100.00;101373.81;5011164;28;20284;-73
2023/08/22 01:29:39;;;;;;;3.67;1.75;;;;;;;15.94;100.00;101353.19;5002976;28;20033;-73
2023/08/22 01:32:09;;;;;;;7.35;2.40;;;;;;;15.92;100.00;101344.50;4997874;28;20764;-72
2023/08/22 01:34:38;;;;;;;7.43;1.88;;;;;;;16.01;100.00;101329.94;5022441;28;20040;-72
2023/08/22 01:37:06;;;;;;;4.93;2.17;;;;;;;16.04;100.00;101309.88;5017501;28;20120;-73
2023/08/22 01:39:33;;;;;;;7.13;2.22;;;;;;;16.06;100.00;101294.38;5021212;28;20048;-73
2023/08/22 01:41:59;;;;;;;7.72;2.35;;;;;;;16.08;100.00;101281.53;4989835;28;20373;-73
2023/08/22 01:44:24;;;;;;;3.88;1.55;;;;;;;16.06;100.00;101280.91;5002733;28;20057;-73
2023/08/22 01:46:50;;;;;;;6.93;2.03;;;;;;;16.07;100.00;101292.50;5010574;28;20022;-73
2023/08/22 01:49:15;;;;;;;10.77;2.70;;;;;;;16.09;100.00;101295.84;5016240;28;20492;-73
2023/08/22 01:51:41;;;;;;;4.80;2.07;;;;;;;16.16;100.00;101286.84;5008359;28;20095;-73
2023/08/22 01:54:06;;;;;;;7.20;1.77;;;;;;;16.23;100.00;101286.94;5016524;28;20069;-73
2023/08/22 01:56:32;;;;;;;6.67;2.00;;;;;;;16.30;100.00;101282.47;5022517;28;20040;-73
2023/08/22 01:58:57;;;;;;;5.13;1.77;;;;;;;16.41;100.00;101264.97;5011460;28;20034;-72
2023/08/22 02:01:24;;;;;;;3.50;2.20;;;;;;;16.42;100.00;101245.91;5000445;28;20629;-72
2023/08/22 02:03:49;;;;;;;5.88;2.17;;;;;;;16.46;100.00;101219.44;5014426;28;20072;-73
2023/08/22 02:06:15;;;;;;;10.40;1.92;;;;;;;16.49;100.00;101210.97;5002521;28;20066;-73
2023/08/22 02:08:41;;;;;;;9.82;2.72;;;;;;;16.46;100.00;101184.41;4995580;28;20083;-73
2023/08/22 02:11:07;;;;;;;6.25;2.15;;;;;;;16.34;100.00;101178.69;5002079;28;20041;-72
2023/08/22 02:13:32;;;;;;;5.97;1.92;;;;;;;16.34;100.00;101186.75;5017724;28;20022;-73
2023/08/22 02:15:58;;;;;;;7.20;1.92;;;;;;;16.37;100.00;101202.53;5004398;28;20056;-73
2023/08/22 02:18:24;;;;;;;7.13;2.17;;;;;;;16.37;100.00;101224.09;5000413;28;20432;-73
2023/08/22 02:20:54;;;;;;;5.53;1.90;;;;;;;16.36;100.00;101238.56;5008366;28;20554;-73
2023/08/22 02:23:19;;;;;;;5.97;1.92;;;;;;;16.25;100.00;101221.06;5019572;28;20256;-72
2023/08/22 02:25:46;;;;;;;4.47;1.70;;;;;;;16.36;100.00;101186.56;5013478;28;20029;-73
2023/08/22 02:28:12;;;;;;;4.68;1.85;;;;;;;16.41;100.00;101163.41;4998551;28;20585;-72
2023/08/22 02:30:37;;;;;;;8.83;2.23;;;;;;;16.38;100.00;101144.91;5020356;28;20147;-73
2023/08/22 02:33:02;;;;;;;4.47;1.77;;;;;;;16.33;100.00;101136.56;5019948;28;20433;-72
2023/08/22 02:35:28;;;;;;;9.55;2.45;;;;;;;16.32;100.00;101140.31;5019268;28;20125;-73
2023/08/22 02:37:54;;;;;;;4.53;1.70;;;;;;;16.30;100.00;101120.81;4996891;28;20102;-73
2023/08/22 02:40:20;;;;;;;4.40;1.73;;;;;;;16.43;100.00;101126.31;5003911;28;20038;-72
2023/08/22 02:42:46;;;;;;;10.70;2.58;;;;;;;16.48;100.00;101119.53;5008531;28;20033;-73
2023/08/22 02:45:11;;;;;;;4.80;1.53;;;;;;;16.52;100.00;101128.91;5018400;28;20038;-73
2023/08/22 02:47:36;;;;;;;3.63;1.80;;;;;;;16.48;100.00;101112.25;5020117;28;20025;-73
2023/08/22 02:50:02;;;;;;;4.83;1.40;;;;;;;16.49;100.00;101086.16;5003786;28;20044;-73
2023/08/22 02:52:27;;;;;;;3.55;1.80;;;;;;;16.43;100.00;101075.09;5003886;28;20396;-72
2023/08/22 02:54:53;;;;;;;6.17;2.43;;;;;;;16.46;100.00;101095.47;5007515;28;20048;-73
2023/08/22 02:57:20;;;;;;;7.35;1.60;;;;;;;16.46;100.00;101103.56;5002220;28;20021;-73
2023/08/22 02:59:47;;;;;;;6.63;2.22;;;;;;;16.45;100.00;101089.22;5011947;28;20035;-73
2023/08/22 03:02:12;;;;;;;8.43;1.60;;;;;;;16.44;100.00;101092.97;5014333;28;20022;-73
2023/08/22 03:04:37;;;;;;;4.68;1.58;;;;;;;16.43;100.00;101122.78;5000859;28;20021;-73
2023/08/22 03:07:04;;;;;;;11.73;2.03;;;;;;;16.41;100.00;101125.69;4984966;28;20033;-73
2023/08/22 03:09:31;;;;;;;6.13;1.80;;;;;;;16.42;100.00;101121.13;5001854;28;20127;-73
2023/08/22 03:11:57;;;;;;;4.32;1.50;;;;;;;16.44;100.00;101137.94;5006779;28;20052;-72
2023/08/22 03:14:24;;;;;;;8.80;2.20;;;;;;;16.36;100.00;101130.81;5017031;28;20030;-73
2023/08/22 03:16:49;;;;;;;5.13;1.58;;;;;;;16.38;100.00;101182.63;5007717;28;20281;-72
2023/08/22 03:19:14;;;;;;;5.03;1.80;;;;;;;16.30;100.00;101185.47;5013398;28;20060;-72
2023/08/22 03:21:40;;;;;;;6.82;2.83;;;;;;;16.31;100.00;101197.91;5008013;28;20072;-72
2023/08/22 03:24:06;;;;;;;12.77;2.63;;;;;;;16.22;100.00;101182.88;5019195;28;20018;-73
2023/08/22 03:26:31;;;;;;;6.87;1.63;;;;;;;16.24;100.00;101186.22;5015508;28;20037;-72
2023/08/22 03:28:56;;;;;;;8.13;1.97;;;;;;;16.19;100.00;101207.50;5006525;28;20030;-73
2023/08/22 03:31:25;;;;;;;3.63;2.10;;;;;;;16.16;100.00;101224.88;5013968;28;20031;-73
2023/08/22 03:33:51;;;;;;;7.53;2.40;;;;;;;16.15;100.00;101236.66;5007118;28;20029;-73
2023/08/22 03:36:17;;;;;;;5.13;2.42;;;;;;;16.19;100.00;101220.97;5018359;28;20503;-72
2023/08/22 03:38:43;;;;;;;3.92;1.35;;;;;;;16.16;100.00;101208.72;5009757;28;20021;-72
2023/08/22 03:41:08;;;;;;;5.50;2.13;;;;;;;16.14;100.00;101186.50;4998970;28;20397;-72
2023/08/22 03:43:34;;;;;;;5.57;1.70;;;;;;;16.17;100.00;101185.28;5001347;28;20040;-73
2023/08/22 03:46:02;;;;;;;4.03;1.70;;;;;;;16.17;100.00;101174.53;4984190;28;20147;-72
2023/08/22 03:48:27;;;;;;;8.97;2.07;;;;;;;16.25;100.00;101155.56;5014483;28;20484;-73
2023/08/22 03:50:52;;;;;;;7.80;1.77;;;;;;;16.30;100.00;101133.44;4990259;28;20040;-72
2023/08/22 03:53:18;;;;;;;7.37;1.60;;;;;;;16.35;100.00;101110.28;5012974;28;20074;-73
2023/08/22 03:55:44;;;;;;;7.33;2.23;;;;;;;16.32;100.00;101097.22;5017342;28;20030;-73
2023/08/22 03:58:11;;;;;;;3.15;1.65;;;;;;;16.36;100.00;101109.25;4996899;28;20026;-72
2023/08/22 04:00:36;;;;;;;5.47;1.70;;;;;;;16.41;100.00;101074.50;4991845;28;20041;-72
2023/08/22 04:03:02;;;;;;;5.17;2.00;;;;;;;16.37;100.00;101072.38;5016227;28;20022;-73
2023/08/22 04:05:27;;;;;;;5.22;1.85;;;;;;;16.41;100.00;101071.81;5003279;28;20366;-73
2023/08/22 04:07:53;;;;;;;7.40;2.40;;;;;;;16.40;100.00;101062.03;5006422;28;20124;-73
2023/08/22 04:10:20;;;;;;;6.15;1.80;;;;;;;16.45;100.00;101070.38;5015253;28;20029;-72
2023/08/22 04:12:46;;;;;;;5.82;1.73;;;;;;;16.44;100.00;101078.66;5003028;28;20032;-73
2023/08/22 04:15:12;;;;;;;5.82;1.50;;;;;;;16.42;100.00;101081.53;5013622;28;20021;-73
2023/08/22 04:17:41;;;;;;;7.82;1.75;;;;;;;16.46;100.00;101136.72;5018689;28;20400;-73
2023/08/22 04:20:08;;;;;;;3.05;1.98;;;;;;;16.41;100.00;101201.16;5014993;28;20030;-73
2023/08/22 04:22:34;;;;;;;3.05;1.40;;;;;;;16.34;100.00;101202.94;5002360;28;20038;-72
2023/08/22 04:25:00;;;;;;;2.67;1.65;;;;;;;16.35;100.00;101188.41;5013690;28;20096;-73
2023/08/22 04:27:25;;;;;;;3.85;1.50;;;;;;;16.41;100.00;101160.72;5013602;28;20033;-73
2023/08/22 04:29:51;;;;;;;4.35;1.83;;;;;;;16.40;100.00;101163.59;5006220;28;20572;-73
2023/08/22 04:32:17;;;;;;;2.88;1.92;;;;;;;16.39;100.00;101188.88;5012386;28;20439;-73
2023/08/22 04:34:43;;;;;;;6.32;2.45;;;;;;;16.35;100.00;101215.38;5011125;28;20025;-72
2023/08/22 04:37:08;;;;;;;6.93;1.60;;;;;;;16.39;100.00;101184.34;4998198;28;20033;-72
2023/08/22 04:39:34;;;;;;;3.17;2.13;;;;;;;16.43;100.00;101144.34;4997350;28;20587;-73
2023/08/22 04:42:14;;;;;;;6.57;2.05;;;;;;;16.41;100.00;101141.00;5014222;28;20068;-72
2023/08/22 04:44:48;;;;;;;2.13;1.27;;;;;;;16.38;100.00;101119.84;5011792;28;20053;-73
2023/08/22 04:47:14;;;;;;;7.97;1.80;;;;;;;16.32;100.00;101132.22;5011960;28;20068;-73
2023/08/22 04:49:39;;;;;;;6.40;1.60;;;;;;;16.38;100.00;101138.69;5000199;28;20018;-72
2023/08/22 04:52:05;;;;;;;6.43;2.00;;;;;;;16.36;100.00;101132.66;5012974;28;20503;-73
2023/08/22 04:54:30;;;;;;;4.65;1.90;;;;;;;16.33;100.00;101144.66;5016993;28;20049;-73
2023/08/22 04:56:56;;;;;;;5.00;1.60;;;;;;;16.36;100.00;101146.13;4991516;28;20025;-73
2023/08/22 04:59:22;;;;;;;6.83;2.07;;;;;;;16.28;100.00;101157.88;5011681;28;20022;-73
2023/08/22 05:01:47;;;;;;;2.08;1.40;;;;;;;16.30;100.00;101190.84;5008436;28;20395;-73
2023/08/22 05:04:13;;;;;;;3.33;1.27;;;;;;;16.33;100.00;101244.34;5011481;28;20468;-72
2023/08/22 05:06:38;;;;;;;5.73;1.73;;;;;;;16.25;100.00;101225.63;5016398;28;20078;-73
2023/08/22 05:09:04;;;;;;;3.03;2.28;;;;;;;16.24;100.00;101205.91;5014500;28;20029;-73
2023/08/22 05:11:30;;;;;;;5.30;1.60;;;;;;;16.30;100.00;101196.25;5014517;28;20018;-73
2023/08/22 05:13:55;;;;;;;4.40;1.63;;;;;;;16.34;100.00;101211.00;5007278;28;20057;-72
2023/08/22 05:16:20;;;;;;;1.60;1.10;;;;;;;16.40;100.00;101180.59;5015749;28;20022;-73
2023/08/22 05:18:46;;;;;;;4.65;1.52;;;;;;;16.40;100.00;101239.06;5011099;28;20040;-72
2023/08/22 05:21:11;;;;;;;3.37;1.77;;;;;;;16.40;100.00;101207.53;5016513;28;20301;-73
2023/08/22 05:23:37;;;;;;;5.57;2.20;;;;;;;16.36;100.00;101189.25;5017290;28;20045;-73
2023/08/22 05:26:03;;;;;;;10.97;2.07;;;;;;;16.46;100.00;101220.28;5019140;28;20100;-72
2023/08/22 05:28:28;;;;;;;5.60;1.73;;;;;;;16.57;100.00;101226.19;5016294;28;20041;-73
2023/08/22 05:30:53;;;;;;;6.93;1.83;;;;;;;17.42;100.00;101170.53;4995550;28;20022;-72
2023/08/22 05:33:19;;;;;;;5.87;1.90;;;;;;;18.58;100.00;101013.00;5016390;28;20555;-73
2023/08/22 05:35:44;;;;;;;2.92;1.55;;;;;;;19.40;100.00;100728.16;5011985;28;20406;-73
2023/08/22 05:38:10;;;;;;;7.90;1.37;;;;;;;19.40;100.00;100452.06;4998380;28;20045;-74
2023/08/22 05:40:36;;;;;;;3.93;1.83;;;;;;;19.36;100.00;100505.00;5017493;28;20337;-73
2023/08/22 05:43:01;;;;;;;4.60;1.48;;;;;;;19.69;100.00;100460.47;5005325;28;20436;-73
2023/08/22 05:45:27;;;;;;;4.30;1.35;;;;;;;19.82;100.00;100367.34;5021339;28;20068;-73
2023/08/22 05:47:52;;;;;;;5.13;1.43;;;;;;;20.10;100.00;100350.41;5011061;28;20048;-73
2023/08/22 05:50:18;;;;;;;5.93;1.50;;;;;;;20.14;100.00;100254.03;5025187;28;20160;-72
2023/08/22 05:52:43;;;;;;;4.70;1.53;;;;;;;18.52;100.00;100299.13;5026206;28;20430;-73
2023/08/22 05:55:09;;;;;;;3.00;1.43;;;;;;;18.55;100.00;100466.28;4990918;28;20766;-73
2023/08/22 05:57:34;;;;;;;5.80;1.42;;;;;;;19.07;100.00;100573.41;5019494;28;20034;-74
2023/08/22 06:00:00;;;;;;;3.63;1.50;;;;;;;19.32;100.00;100492.97;5016858;28;20137;-73
2023/08/22 06:02:25;;;;;;;4.07;1.17;;;;;;;19.49;100.00;100516.72;5000881;28;20384;-73
2023/08/22 06:04:51;;;;;;;2.25;1.75;;;;;;;19.86;100.00;100357.72;5011192;28;20029;-73
2023/08/22 06:07:17;;;;;;;8.00;1.70;;;;;;;20.59;100.00;100276.97;5025672;28;20036;-73
2023/08/22 06:09:42;;;;;;;6.17;1.67;;;;;;;20.80;100.00;100161.56;5024573;28;20039;-73
2023/08/22 06:12:08;;;;;;;4.10;1.37;;;;;;;21.20;100.00;100106.31;5018412;28;20025;-73
2023/08/22 06:14:34;;;;;;;3.15;1.42;;;;;;;21.06;100.00;100184.53;5013678;28;20060;-73
2023/08/22 06:17:00;;;;;;;3.78;1.20;;;;;;;21.31;100.00;100175.19;5012897;28;20417;-74
2023/08/22 06:19:25;;;;;;;4.45;2.20;;;;;;;21.12;100.00;100223.41;5026266;28;20036;-73
2023/08/22 06:21:54;;;;;;;2.47;1.15;;;;;;;21.86;100.00;100035.78;5005012;28;20023;-73
2023/08/22 06:24:20;;;;;;;5.00;1.25;;;;;;;21.78;100.00;99863.19;5029233;28;20085;-74
2023/08/22 06:26:47;;;;;;;3.13;1.15;;;;;;;21.96;100.00;100010.63;5013125;28;20029;-73
2023/08/22 06:29:12;;;;;;;3.05;1.48;;;;;;;22.06;100.00;99861.25;5029701;28;20028;-73
2023/08/22 06:31:38;;;;;;;3.67;1.30;;;;;;;22.74;100.00;100093.53;5036421;28;20037;-73
2023/08/22 06:34:03;;;;;;;1.20;1.10;;;;;;;22.77;99.89;99918.06;5013944;28;20029;-73
2023/08/22 06:36:29;;;;;;;3.40;1.40;;;;;;;22.94;99.86;100032.19;5039652;28;20075;-73
2023/08/22 06:38:55;;;;;;;5.18;1.45;;;;;;;23.28;96.98;99917.50;5029056;28;20029;-74
2023/08/22 06:41:22;;;;;;;2.80;1.35;;;;;;;23.51;94.09;99812.72;5021527;28;20028;-73
2023/08/22 06:43:47;;;;;;;4.17;1.90;;;;;;;23.74;93.25;99849.53;5012714;22;20078;-88
2023/08/22 06:46:16;;;;;;;3.85;1.42;;;;;;;23.59;96.48;100071.00;4996340;28;20029;-86
2023/08/22 06:48:43;;;;;;;2.75;1.55;;;;;;;23.76;96.92;100130.78;5003032;28;20106;-89
2023/08/22 06:51:09;;;;;;;3.60;1.50;;;;;;;23.33;99.02;100181.69;5003172;28;20029;-89
2023/08/22 06:53:34;;;;;;;5.93;1.77;;;;;;;23.35;99.87;100256.63;4982546;28;20018;-89
2023/08/22 06:56:00;;;;;;;1.85;1.30;;;;;;;23.45;96.47;100020.78;4991628;28;20511;-87
2023/08/22 06:58:25;;;;;;;3.00;1.47;;;;;;;22.10;98.44;99855.03;4993479;28;20024;-89
2023/08/22 07:00:50;;;;;;;2.83;1.23;;;;;;;22.75;100.00;100348.22;5004628;28;20052;-90
2023/08/22 07:03:18;;;;;;;2.37;1.23;;;;;;;22.82;99.20;100129.50;4989811;28;20825;-89
2023/08/22 07:05:44;;;;;;;4.57;1.25;;;;;;;22.79;96.81;99980.38;4982527;28;20115;-90
2023/08/22 07:08:09;;;;;;;2.73;1.37;;;;;;;23.24;96.78;100153.31;4988479;28;20068;-92
2023/08/22 07:10:35;;;;;;;3.05;1.30;;;;;;;23.08;92.01;99753.00;4989300;28;20038;-89
2023/08/22 07:13:01;;;;;;;2.10;1.13;;;;;;;23.21;90.58;99726.34;4996935;28;20032;-90
2023/08/22 07:15:26;;;;;;;5.22;1.35;;;;;;;23.61;92.99;100055.19;4997078;28;20071;-90
2023/08/22 07:17:51;;;;;;;5.35;1.30;;;;;;;24.04;90.05;99948.78;4984970;28;20172;-90
2023/08/22 07:20:17;;;;;;;5.15;1.70;;;;;;;22.85;89.55;99595.63;5018216;28;20080;-90
2023/08/22 07:22:42;;;;;;;3.55;1.35;;;;;;;22.96;89.73;99703.41;4995897;28;20033;-91
2023/08/22 07:25:08;;;;;;;4.40;1.27;;;;;;;22.17;92.36;99690.88;4990942;28;20018;-91
2023/08/22 07:27:34;;;;;;;5.47;1.60;;;;;;;21.79;95.48;99926.50;4978074;28;20339;-90
2023/08/22 07:29:59;;;;;;;5.20;1.17;;;;;;;21.65;98.29;100102.63;5006218;28;20056;-91
2023/08/22 07:32:24;;;;;;;2.47;1.40;;;;;;;21.65;97.19;100021.16;4990313;28;20632;-90
2023/08/22 07:34:50;;;;;;;5.13;1.43;;;;;;;21.48;98.50;100057.34;5012497;28;20107;-89
2023/08/22 07:37:15;;;;;;;3.87;1.60;;;;;;;21.57;98.82;100108.50;4981023;28;20044;-88
2023/08/22 07:39:42;;;;;;;2.83;1.40;;;;;;;21.66;99.16;100147.75;4985705;28;20281;-88
2023/08/22 07:42:08;;;;;;;3.72;1.77;;;;;;;22.26;98.40;100233.09;5006368;28;20423;-89
2023/08/22 07:44:33;;;;;;;2.78;1.17;;;;;;;22.01;95.78;99981.63;4995467;28;20029;-90
2023/08/22 07:46:58;;;;;;;6.87;1.83;;;;;;;22.65;95.96;100176.69;5012223;28;20037;-89
2023/08/22 07:49:24;;;;;;;2.67;1.17;;;;;;;22.84;93.25;100038.38;4981521;28;20835;-88
2023/08/22 07:51:50;;;;;;;;;;;;;;;22.60;91.36;99805.88;4995552;28;20099;-89
2023/08/22 07:54:15;;;;;;;4.40;1.42;;;;;;;22.61;91.91;99925.28;5004973;28;19913;-92
2023/08/22 07:56:41;;;;;;;7.30;1.47;;;;;;;22.48;92.84;99974.72;4992797;28;20029;-91
2023/08/22 07:59:06;;;;;;;3.33;1.50;;;;;;;22.78;93.62;100115.63;4998223;28;20306;-90
2023/08/22 08:01:32;;;;;;;3.53;1.83;;;;;;;22.46;91.10;99786.50;4982402;28;20025;-89
2023/08/22 08:03:58;;;;;;;3.97;1.80;;;;;;;22.93;92.37;100079.53;4998771;28;20029;-89
2023/08/22 08:06:24;;;;;;;5.50;1.40;;;;;;;23.48;89.14;99972.03;4990714;28;20018;-88
2023/08/22 08:08:49;;;;;;;8.10;2.47;;;;;;;23.02;87.97;99745.91;5000343;28;20037;-89
2023/08/22 08:11:15;;;;;;;5.13;1.70;;;;;;;23.69;89.46;100109.16;5007136;28;20186;-90
2023/08/22 08:13:40;;;;;;;3.57;1.50;;;;;;;23.98;84.79;99751.69;5002476;28;20044;-89
2023/08/22 08:16:06;;;;;;;3.73;1.40;;;;;;;24.57;85.87;100029.28;4989585;28;20026;-89
2023/08/22 08:18:32;;;;;;;;;;;;;;;23.95;82.94;99578.59;4995551;28;20025;-89
2023/08/22 08:20:57;;;;;;;4.57;1.35;;;;;;;24.12;81.59;99544.72;5003411;28;20268;-89
2023/08/22 08:23:23;;;;;;;6.90;1.58;;;;;;;24.34;81.89;99686.13;5001637;28;20037;-90
2023/08/22 08:25:48;;;;;;;3.43;1.47;;;;;;;23.90;82.58;99624.13;5002955;28;20033;-88
2023/08/22 08:28:14;;;;;;;4.00;1.45;;;;;;;24.06;82.49;99720.31;4998834;28;20104;-89
2023/08/22 08:30:39;;;;;;;5.10;1.75;;;;;;;24.33;81.06;99649.84;4989295;28;20022;-87
2023/08/22 08:33:06;;;;;;;2.83;1.50;;;;;;;24.52;81.34;99777.47;5006046;28;20475;-89
2023/08/22 08:35:32;;;;;;;4.97;1.58;;;;;;;24.62;81.92;99834.72;4997191;28;20273;-89
2023/08/22 08:37:59;;;;;;;3.63;2.75;;;;;;;24.19;83.13;99812.44;4973539;28;20038;-89
2023/08/22 08:40:27;;;;;;;4.43;1.67;;;;;;;24.00;79.03;99385.03;4999929;28;20034;-88
2023/08/22 08:42:52;;;;;;;4.25;1.85;;;;;;;24.40;79.51;99614.91;4974444;28;20121;-89
2023/08/22 08:45:18;;;;;;;3.77;1.20;;;;;;;24.97;80.30;99890.28;4991774;28;20544;-90
2023/08/22 08:47:45;;;;;;;5.03;2.20;;;;;;;25.68;77.09;99728.69;4998703;28;20395;-89
2023/08/22 08:50:10;;;;;;;2.42;1.38;;;;;;;25.38;72.39;99112.41;4980491;28;20026;-89
2023/08/22 08:52:36;;;;;;;3.80;1.85;;;;;;;26.34;73.15;99573.19;4993597;28;20037;-89
2023/08/22 08:55:04;;;;;;;2.85;1.50;;;;;;;26.20;72.40;99492.94;5020594;28;20550;-86
2023/08/22 08:57:30;;;;;;;2.50;1.67;;;;;;;26.65;72.69;99668.56;5006244;28;20030;-87
2023/08/22 08:59:55;;;;;;;3.83;1.20;;;;;;;27.15;68.78;99348.38;4976994;28;20022;-91
2023/08/22 09:02:21;;;;;;;2.45;1.50;;;;;;;26.88;67.01;99163.03;4999470;28;20088;-91
2023/08/22 09:04:47;;;;;;;3.80;1.92;;;;;;;26.52;68.65;99222.06;5007354;28;20424;-91
2023/08/22 09:07:14;;;;;;;3.67;1.70;;;;;;;26.74;67.91;99217.81;5001340;28;20034;-90
2023/08/22 09:09:39;;;;;;;3.17;1.48;;;;;;;26.70;67.30;99225.03;4989256;28;20682;-91
2023/08/22 09:12:10;;;;;;;3.42;1.83;;;;;;;26.42;71.98;99712.06;4999420;28;20029;-88
2023/08/22 09:14:44;;;;;;;5.80;1.27;;;;;;;26.20;70.11;99438.22;4990950;28;20038;-91
2023/08/22 09:17:14;;;;;;;2.38;1.40;;;;;;;26.63;68.80;99479.97;5015428;28;20025;-89
2023/08/22 09:19:39;;;;;;;5.97;2.08;;;;;;;26.38;68.73;99390.88;5011930;28;20050;-92
2023/08/22 09:22:05;;;;;;;4.78;1.60;;;;;;;27.35;68.23;99648.59;4999465;28;20097;-93
2023/08/22 09:24:32;;;;;;;4.22;1.60;;;;;;;26.86;68.13;99428.91;5012623;28;20088;-92
2023/08/22 09:27:01;;;;;;;3.17;1.65;;;;;;;27.58;68.26;99701.59;4999341;28;20029;-92
2023/08/22 09:29:29;;;;;;;3.20;1.75;;;;;;;27.88;66.44;99545.88;4992317;28;20659;-92
2023/08/22 09:32:01;;;;;;;3.75;1.63;;;;;;;27.76;65.54;99428.47;5021742;28;20042;-93
2023/08/22 09:34:26;;;;;;;4.13;2.00;;;;;;;27.89;63.70;99227.44;5010238;28;20543;-90
2023/08/22 09:36:53;;;;;;;3.50;1.60;;;;;;;28.67;63.39;99487.81;5006404;28;20112;-91
2023/08/22 09:39:19;;;;;;;3.63;2.10;;;;;;;28.71;62.67;99419.34;5000590;28;20144;-88
2023/08/22 09:41:45;;;;;;;3.90;2.13;;;;;;;29.20;62.90;99546.63;4990363;28;20450;-88
2023/08/22 09:44:11;;;;;;;2.88;1.67;;;;;;;28.85;62.29;99345.91;4978744;28;20038;-88
2023/08/22 09:46:41;;;;;;;;;;;;;;;28.43;63.51;99422.22;4997020;28;20643;-87
2023/08/22 09:49:09;;;;;;;5.78;1.80;;;;;;;28.73;61.49;99197.41;4997591;28;19963;-87
2023/08/22 09:51:36;;;;;;;8.15;2.03;;;;;;;28.35;63.85;99429.28;5004719;28;20033;-89
2023/08/22 09:54:03;;;;;;;5.25;2.30;;;;;;;27.18;62.98;98969.72;5009618;28;20101;-90
2023/08/22 09:56:31;;;;;;;5.20;2.08;;;;;;;27.75;63.39;99234.94;4983733;28;20141;-89
2023/08/22 09:58:56;;;;;;;3.55;2.30;;;;;;;27.89;64.00;99410.38;4991478;28;20030;-89
2023/08/22 10:01:24;;;;;;;5.45;2.05;;;;;;;28.37;62.77;99338.38;5009114;28;20030;-88
2023/08/22 10:03:53;;;;;;;5.35;1.70;;;;;;;28.22;59.77;98889.66;4988275;28;20055;-87
2023/08/22 10:06:23;;;;;;;4.00;1.50;;;;;;;28.02;63.17;99375.78;4992007;28;20041;-90
2023/08/22 10:08:48;;;;;;;3.08;1.83;;;;;;;27.68;64.06;99363.41;5000272;28;20191;-87
2023/08/22 10:11:17;;;;;;;5.75;2.00;;;;;;;27.82;63.86;99361.44;4994788;28;20114;-87
2023/08/22 10:13:43;;;;;;;8.35;2.33;;;;;;;27.33;60.76;98749.38;4979104;28;20092;-88
2023/08/22 10:16:09;;;;;;;6.43;2.33;;;;;;;27.75;62.65;99235.72;4979129;28;20021;-89
2023/08/22 10:18:35;;;;;;;5.00;2.00;;;;;;;28.02;64.49;99521.16;5000677;28;20049;-89
2023/08/22 10:21:03;;;;;;;4.70;2.17;;;;;;;28.42;63.66;99591.59;4968195;28;20045;-87
2023/08/22 10:23:54;;;;;;;9.73;2.28;;;;;;;27.72;61.99;99062.81;4972175;28;20512;-91
2023/08/22 10:26:21;;;;;;;3.60;2.65;;;;;;;28.14;61.61;99205.94;4997393;28;20068;-86
2023/08/22 10:29:35;;;;;;;4.05;1.77;;;;;;;29.10;63.94;99879.38;4995782;28;20096;-88
2023/08/22 10:32:00;;;;;;;7.50;2.78;;;;;;;29.59;61.16;99567.00;4964099;28;20381;-91
2023/08/22 10:34:26;;;;;;;4.47;2.20;;;;;;;29.21;61.65;99507.00;4978537;28;20029;-91
2023/08/22 10:37:02;;;;;;;4.43;2.10;;;;;;;27.88;60.02;98740.47;4997726;28;20284;-91
2023/08/22 10:39:38;;;;;;;8.75;2.08;;;;;;;29.56;61.79;99710.63;4977081;28;20125;-91
2023/08/22 10:42:04;;;;;;;4.85;2.30;;;;;;;29.04;61.55;99379.41;4997262;28;20069;-89
2023/08/22 10:44:32;;;;;;;3.17;2.35;;;;;;;29.84;60.78;99626.00;4988563;28;20281;-88
2023/08/22 10:47:06;;;;;;;11.75;3.00;;;;;;;29.56;61.62;99597.88;5009212;28;20029;-89
2023/08/22 10:49:32;;;;;;;5.63;3.00;;;;;;;28.34;60.44;98955.66;5009611;28;20061;-90
2023/08/22 10:52:06;;;;;;;5.43;2.75;;;;;;;28.77;62.38;99445.53;4989586;28;20025;-88
2023/08/22 10:54:32;;;;;;;5.30;3.20;;;;;;;29.22;63.35;99704.59;5012780;28;20087;-90
2023/08/22 10:57:16;;;;;;;;;;;;;;;29.00;60.94;99245.75;4993813;28;20021;-88
2023/08/22 10:59:59;;;;;;;8.85;2.80;;;;;;;29.54;60.85;99507.44;4985291;28;19913;-89
2023/08/22 11:02:35;;;;;;;8.20;2.42;;;;;;;28.64;63.03;99424.47;5000117;28;20042;-87
2023/08/22 11:05:04;;;;;;;8.38;3.40;;;;;;;28.28;62.70;99324.63;4980855;28;20460;-88
2023/08/22 11:07:30;;;;;;;7.93;3.05;;;;;;;28.04;62.01;99069.88;4996763;28;20822;-89
2023/08/22 11:09:57;;;;;;;7.57;2.45;;;;;;;29.38;62.79;99812.22;4970673;28;20052;-88
2023/08/22 11:12:26;;;;;;;4.88;1.95;;;;;;;29.95;62.61;99918.19;5011145;28;20401;-88
2023/08/22 11:14:53;;;;;;;11.48;2.70;;;;;;;29.46;61.04;99475.25;5010359;28;20087;-89
2023/08/22 11:17:20;;;;;;;8.38;2.80;;;;;;;27.56;61.33;98703.44;4980153;28;20018;-89
2023/08/22 11:19:46;;;;;;;6.10;2.40;;;;;;;27.82;63.83;99344.16;5009405;28;20120;-89
2023/08/22 11:22:12;;;;;;;7.90;2.38;;;;;;;29.48;64.16;99953.31;5012132;28;20028;-89